Twinkle Express — 3EEN4 — position and weather

sailwx.info

Track history (hours):
 
Tides and Currents Weather Stations Pressure Air Temp Water Temp Dewpoint Dewpoint Depression Visibility Wind Speed Wind Dir Waves Ship Positions

Twinkle Express

Last reported at 2013-Oct-07 10:05 UTC. Time now 2014-Jul-28 08:26 UTC.
Position N 25°34' W 079°33'.
Warning: this ship's position is months out of date.

Length 180 m; draft 7.9 m.

Type: Tanker. MMSI: 371952000.

Date/timePositionNaut miles runAvg speedWind from/ knotsBaromVisibWave heightAir tempDewpointWater temp
2013-Oct-07 10:05N 25°34' W 079°33'610.7
2013-Oct-07 09:33N 25°40' W 079°32'1010.5
2013-Oct-07 08:34N 25°50' W 079°31'1010.4
2013-Oct-07 07:33N 26°00' W 079°29'1110.6
2013-Oct-07 06:33N 26°11' W 079°28'1110.6
2013-Oct-07 05:34N 26°21' W 079°27'1110.7
2013-Oct-07 04:33N 26°32' W 079°27'1111.2
2013-Oct-07 03:33N 26°43' W 079°27'1711.6
2013-Oct-07 02:07N 26°60' W 079°23'811.6
2013-Oct-07 01:27N 27°07' W 079°22'  
2013-Oct-04 12:16N 37°09' W 071°24'1014.4
2013-Oct-04 11:33N 37°18' W 071°30'8513.4
2013-Oct-04 05:14N 38°35' W 072°14'1013.3
2013-Oct-04 04:31N 38°44' W 072°19'1212.9
2013-Oct-04 03:33N 38°55' W 072°25'1313.0
2013-Oct-04 02:33N 39°07' W 072°32'1313.4
2013-Oct-04 01:33N 39°19' W 072°39'1313.0
2013-Oct-04 00:33N 39°31' W 072°47'1313.3
2013-Oct-03 23:33N 39°42' W 072°56'1313.5
2013-Oct-03 22:33N 39°53' W 073°05'1212.2
2013-Oct-03 21:33N 39°59' W 073°19'1313.5
2013-Oct-03 20:33N 40°10' W 073°30'1413.6
2013-Oct-03 19:33N 40°20' W 073°41'1111.3
2013-Oct-03 18:34N 40°28' W 073°52'1110.7
2013-Oct-03 17:33N 40°35' W 074°02'2 2.3
2013-Oct-03 16:32N 40°37' W 074°04'0 0.0
2013-Oct-03 15:32N 40°37' W 074°04'0 0.0
2013-Oct-03 14:32N 40°37' W 074°04'0 0.2
2013-Oct-03 13:32N 40°38' W 074°04'0 0.0
2013-Oct-03 12:32N 40°38' W 074°04'0 0.0
2013-Oct-03 11:32N 40°38' W 074°04'0 0.0
2013-Oct-03 10:33N 40°38' W 074°04'0 0.0
2013-Oct-03 09:32N 40°38' W 074°04'0 0.1
2013-Oct-03 08:32N 40°38' W 074°03'0 0.2
2013-Oct-03 07:32N 40°37' W 074°04'0 0.0
2013-Oct-03 06:32N 40°37' W 074°04'0 0.0
2013-Oct-03 05:32N 40°37' W 074°04'0 0.0
2013-Oct-03 04:32N 40°37' W 074°04'0 0.0
2013-Oct-03 03:32N 40°37' W 074°04'0 0.0
2013-Oct-03 02:32N 40°37' W 074°04'0 0.1
2013-Oct-03 01:32N 40°38' W 074°03'0 0.1
2013-Oct-03 00:32N 40°38' W 074°04'0 0.0
2013-Oct-02 23:32N 40°38' W 074°04'0 0.0
2013-Oct-02 22:30N 40°38' W 074°04'5 5.4
2013-Oct-02 21:33N 40°39' W 074°10'5 4.5
2013-Oct-02 20:30N 40°34' W 074°13'1 0.0
2013-Oct-01 11:13N 40°35' W 074°12'2 3.1
2013-Oct-01 10:33N 40°37' W 074°12'4 4.3
2013-Oct-01 09:34N 40°39' W 074°07'3 2.9
2013-Oct-01 08:32N 40°39' W 074°03'0 0.0
2013-Oct-01 07:32N 40°39' W 074°03'0 0.2
2013-Oct-01 06:32N 40°39' W 074°03'0 0.1
2013-Oct-01 05:32N 40°39' W 074°03'0 0.0
2013-Oct-01 04:32N 40°39' W 074°03'0 0.0
2013-Oct-01 03:34N 40°39' W 074°03'0 0.0
2013-Oct-01 02:34N 40°39' W 074°03'0 0.0
2013-Oct-01 01:34N 40°39' W 074°03'0 0.2
2013-Oct-01 00:34N 40°39' W 074°03'0 0.2
2013-Sep-30 23:33N 40°39' W 074°03'6 5.9
2013-Sep-30 22:33N 40°33' W 074°01'9 9.3
2013-Sep-30 21:34N 40°28' W 073°51'5 5.5
2013-Sep-30 20:33N 40°28' W 073°44'2 2.1
2013-Sep-30 19:33N 40°28' W 073°41'5 4.6
2013-Sep-30 18:33N 40°28' W 073°35'10 9.9
2013-Sep-30 17:33N 40°29' W 073°22'9 9.3
2013-Sep-30 16:33N 40°30' W 073°10'1110.9
2013-Sep-30 15:33N 40°30' W 072°56'1212.0
2013-Sep-30 14:33N 40°30' W 072°40'9 9.1
2013-Sep-30 13:33N 40°33' W 072°28'2 2.1
2013-Sep-30 12:33N 40°32' W 072°26'5 5.5
2013-Sep-30 11:34N 40°31' W 072°19'1313.1
2013-Sep-30 10:33N 40°31' W 072°01'1413.6
2013-Sep-30 09:33N 40°32' W 071°43'1413.6
2013-Sep-30 08:33N 40°32' W 071°26'1413.6
2013-Sep-30 07:33N 40°32' W 071°08'1413.7
2013-Sep-30 06:33N 40°33' W 070°50'1413.9
2013-Sep-30 05:34N 40°33' W 070°32'1413.8
2013-Sep-30 04:33N 40°33' W 070°13'1413.8
2013-Sep-30 03:33N 40°34' W 069°55'1413.8
2013-Sep-30 02:33N 40°34' W 069°37'613.5
2013-Sep-30 02:07N 40°35' W 069°29'713.0
2013-Sep-30 01:33N 40°35' W 069°20'1313.0
2013-Sep-30 00:33N 40°35' W 069°02'1313.0
2013-Sep-29 23:33N 40°35' W 068°45'1513.4
2013-Sep-29 22:28N 40°32' W 068°26'1313.8
2013-Sep-29 21:31N 40°27' W 068°10'  
Track history (hours):
 
Tides and Currents Weather Stations Pressure Air Temp Water Temp Dewpoint Dewpoint Depression Visibility Wind Speed Wind Dir Waves Ship Positions

Twinkle Express

Last reported at 2013-Oct-07 10:05 UTC. Time now 2014-Jul-28 08:26 UTC.
Position N 25°34' W 079°33'.
Warning: this ship's position is months out of date.

Length 180 m; draft 7.9 m.

Type: Tanker. MMSI: 371952000.

Date/timePositionNaut miles runAvg speedWind from/ knotsBaromVisibWave heightAir tempDewpointWater temp
2013-Oct-07 10:05N 25°34' W 079°33'610.7
2013-Oct-07 09:33N 25°40' W 079°32'1010.5
2013-Oct-07 08:34N 25°50' W 079°31'1010.4
2013-Oct-07 07:33N 26°00' W 079°29'1110.6
2013-Oct-07 06:33N 26°11' W 079°28'1110.6
2013-Oct-07 05:34N 26°21' W 079°27'1110.7
2013-Oct-07 04:33N 26°32' W 079°27'1111.2
2013-Oct-07 03:33N 26°43' W 079°27'1711.6
2013-Oct-07 02:07N 26°60' W 079°23'811.6
2013-Oct-07 01:27N 27°07' W 079°22'  
2013-Oct-04 12:16N 37°09' W 071°24'1014.4
2013-Oct-04 11:33N 37°18' W 071°30'8513.4
2013-Oct-04 05:14N 38°35' W 072°14'1013.3
2013-Oct-04 04:31N 38°44' W 072°19'1212.9
2013-Oct-04 03:33N 38°55' W 072°25'1313.0
2013-Oct-04 02:33N 39°07' W 072°32'1313.4
2013-Oct-04 01:33N 39°19' W 072°39'1313.0
2013-Oct-04 00:33N 39°31' W 072°47'1313.3
2013-Oct-03 23:33N 39°42' W 072°56'1313.5
2013-Oct-03 22:33N 39°53' W 073°05'1212.2
2013-Oct-03 21:33N 39°59' W 073°19'1313.5
2013-Oct-03 20:33N 40°10' W 073°30'1413.6
2013-Oct-03 19:33N 40°20' W 073°41'1111.3
2013-Oct-03 18:34N 40°28' W 073°52'1110.7
2013-Oct-03 17:33N 40°35' W 074°02'2 2.3
2013-Oct-03 16:32N 40°37' W 074°04'0 0.0
2013-Oct-03 15:32N 40°37' W 074°04'0 0.0
2013-Oct-03 14:32N 40°37' W 074°04'0 0.2
2013-Oct-03 13:32N 40°38' W 074°04'0 0.0
2013-Oct-03 12:32N 40°38' W 074°04'0 0.0
2013-Oct-03 11:32N 40°38' W 074°04'0 0.0
2013-Oct-03 10:33N 40°38' W 074°04'0 0.0
2013-Oct-03 09:32N 40°38' W 074°04'0 0.1
2013-Oct-03 08:32N 40°38' W 074°03'0 0.2
2013-Oct-03 07:32N 40°37' W 074°04'0 0.0
2013-Oct-03 06:32N 40°37' W 074°04'0 0.0
2013-Oct-03 05:32N 40°37' W 074°04'0 0.0
2013-Oct-03 04:32N 40°37' W 074°04'0 0.0
2013-Oct-03 03:32N 40°37' W 074°04'0 0.0
2013-Oct-03 02:32N 40°37' W 074°04'0 0.1
2013-Oct-03 01:32N 40°38' W 074°03'0 0.1
2013-Oct-03 00:32N 40°38' W 074°04'0 0.0
2013-Oct-02 23:32N 40°38' W 074°04'0 0.0
2013-Oct-02 22:30N 40°38' W 074°04'5 5.4
2013-Oct-02 21:33N 40°39' W 074°10'5 4.5
2013-Oct-02 20:30N 40°34' W 074°13'1 0.0
2013-Oct-01 11:13N 40°35' W 074°12'2 3.1
2013-Oct-01 10:33N 40°37' W 074°12'4 4.3
2013-Oct-01 09:34N 40°39' W 074°07'3 2.9
2013-Oct-01 08:32N 40°39' W 074°03'0 0.0
2013-Oct-01 07:32N 40°39' W 074°03'0 0.2
2013-Oct-01 06:32N 40°39' W 074°03'0 0.1
2013-Oct-01 05:32N 40°39' W 074°03'0 0.0
2013-Oct-01 04:32N 40°39' W 074°03'0 0.0
2013-Oct-01 03:34N 40°39' W 074°03'0 0.0
2013-Oct-01 02:34N 40°39' W 074°03'0 0.0
2013-Oct-01 01:34N 40°39' W 074°03'0 0.2
2013-Oct-01 00:34N 40°39' W 074°03'0 0.2
2013-Sep-30 23:33N 40°39' W 074°03'6 5.9
2013-Sep-30 22:33N 40°33' W 074°01'9 9.3
2013-Sep-30 21:34N 40°28' W 073°51'5 5.5
2013-Sep-30 20:33N 40°28' W 073°44'2 2.1
2013-Sep-30 19:33N 40°28' W 073°41'5 4.6
2013-Sep-30 18:33N 40°28' W 073°35'10 9.9
2013-Sep-30 17:33N 40°29' W 073°22'9 9.3
2013-Sep-30 16:33N 40°30' W 073°10'1110.9
2013-Sep-30 15:33N 40°30' W 072°56'1212.0
2013-Sep-30 14:33N 40°30' W 072°40'9 9.1
2013-Sep-30 13:33N 40°33' W 072°28'2 2.1
2013-Sep-30 12:33N 40°32' W 072°26'5 5.5
2013-Sep-30 11:34N 40°31' W 072°19'1313.1
2013-Sep-30 10:33N 40°31' W 072°01'1413.6
2013-Sep-30 09:33N 40°32' W 071°43'1413.6
2013-Sep-30 08:33N 40°32' W 071°26'1413.6
2013-Sep-30 07:33N 40°32' W 071°08'1413.7
2013-Sep-30 06:33N 40°33' W 070°50'1413.9
2013-Sep-30 05:34N 40°33' W 070°32'1413.8
2013-Sep-30 04:33N 40°33' W 070°13'1413.8
2013-Sep-30 03:33N 40°34' W 069°55'1413.8
2013-Sep-30 02:33N 40°34' W 069°37'613.5
2013-Sep-30 02:07N 40°35' W 069°29'713.0
2013-Sep-30 01:33N 40°35' W 069°20'1313.0
2013-Sep-30 00:33N 40°35' W 069°02'1313.0
2013-Sep-29 23:33N 40°35' W 068°45'1513.4
2013-Sep-29 22:28N 40°32' W 068°26'1313.8
2013-Sep-29 21:31N 40°27' W 068°10'  

Dump ship's entire track history